createdAt,value
2022-11-19T00:00:53.459Z,9.24
2022-11-19T00:01:59.912Z,9.25
2022-11-19T00:03:01.483Z,9.23
2022-11-19T00:04:07.780Z,9.22
2022-11-19T00:05:09.413Z,9.24
2022-11-19T00:06:14.220Z,9.26
2022-11-19T00:07:15.727Z,9.26
2022-11-19T00:08:20.728Z,9.27
2022-11-19T00:09:22.307Z,9.28
2022-11-19T00:10:25.783Z,9.28
2022-11-19T00:11:46.965Z,9.30
2022-11-19T00:12:54.508Z,9.28
2022-11-19T00:13:56.984Z,9.27
2022-11-19T00:14:58.490Z,9.27
2022-11-19T00:16:06.215Z,9.27
2022-11-19T00:17:09.207Z,9.24
2022-11-19T00:18:11.677Z,9.24
2022-11-19T00:19:13.250Z,9.24
2022-11-19T00:20:17.486Z,9.22
2022-11-19T00:21:19.006Z,9.21
2022-11-19T00:22:21.464Z,9.21
2022-11-19T00:23:22.995Z,9.22
2022-11-19T00:24:28.650Z,9.24
2022-11-19T00:25:30.597Z,9.24
2022-11-19T00:26:33.300Z,9.23
2022-11-19T00:27:34.849Z,9.24
2022-11-19T00:28:38.070Z,9.22
2022-11-19T00:29:39.549Z,9.24
2022-11-19T00:30:47.981Z,9.23
2022-11-19T00:31:50.212Z,9.21
2022-11-19T00:32:54.012Z,9.20
2022-11-19T00:33:55.639Z,9.20
2022-11-19T00:34:58.144Z,9.22
2022-11-19T00:36:01.168Z,9.23
2022-11-19T00:37:04.095Z,9.20
2022-11-19T00:38:06.122Z,9.19
2022-11-19T00:39:10.298Z,9.18
2022-11-19T00:40:12.699Z,9.18
2022-11-19T00:41:15.149Z,9.16
2022-11-19T00:42:16.659Z,9.17
2022-11-19T00:43:36.910Z,9.16
2022-11-19T00:44:39.371Z,9.16
2022-11-19T00:45:41.170Z,9.13
2022-11-19T00:46:43.630Z,9.11
2022-11-19T00:47:45.106Z,9.09
2022-11-19T00:48:50.176Z,9.08
2022-11-19T00:49:51.738Z,9.06
2022-11-19T00:50:54.198Z,9.05
2022-11-19T00:51:55.752Z,9.04
2022-11-19T00:52:59.442Z,9.04
2022-11-19T00:54:00.954Z,9.02
2022-11-19T00:55:03.453Z,8.99
2022-11-19T00:56:07.466Z,8.97
2022-11-19T00:57:09.926Z,8.90
2022-11-19T00:58:11.428Z,8.88
2022-11-19T00:59:13.915Z,8.87
2022-11-19T01:00:16.723Z,8.86
2022-11-19T01:01:21.120Z,8.83
2022-11-19T01:02:22.622Z,8.80
2022-11-19T01:03:25.546Z,8.77
2022-11-19T01:04:29.487Z,8.73
2022-11-19T01:05:31.146Z,8.71
2022-11-19T01:06:34.061Z,8.67
2022-11-19T01:07:35.579Z,8.65
2022-11-19T01:08:38.739Z,8.62
2022-11-19T01:09:40.237Z,8.60
2022-11-19T01:10:43.549Z,8.60
2022-11-19T01:11:46.109Z,8.58
2022-11-19T01:13:06.168Z,8.60
2022-11-19T01:14:09.032Z,8.57
2022-11-19T01:15:10.671Z,8.56
2022-11-19T01:16:15.338Z,8.55
2022-11-19T01:17:16.832Z,8.53
2022-11-19T01:18:19.947Z,8.50
2022-11-19T01:19:22.655Z,8.46
2022-11-19T01:20:25.908Z,8.46
2022-11-19T01:21:30.934Z,8.44
2022-11-19T01:22:32.489Z,8.44
2022-11-19T01:23:35.312Z,8.42
2022-11-19T01:24:36.849Z,8.42
2022-11-19T01:25:39.614Z,8.40
2022-11-19T01:26:45.822Z,8.39
2022-11-19T01:27:47.881Z,8.38
2022-11-19T01:28:51.125Z,8.37
2022-11-19T01:29:52.684Z,8.35
2022-11-19T01:30:55.198Z,8.33
2022-11-19T01:31:57.663Z,8.32
2022-11-19T01:32:59.220Z,8.28
2022-11-19T01:34:01.778Z,8.26
2022-11-19T01:35:03.868Z,8.22
2022-11-19T01:36:11.548Z,8.17
2022-11-19T01:37:13.064Z,8.16
2022-11-19T01:38:15.543Z,8.12
2022-11-19T01:39:17.350Z,8.10
2022-11-19T01:40:20.188Z,8.09
2022-11-19T01:41:24.849Z,8.10
2022-11-19T01:42:47.812Z,8.08
2022-11-19T01:43:52.151Z,8.07
2022-11-19T01:45:01.005Z,8.06
2022-11-19T01:46:03.486Z,8.05
2022-11-19T01:47:05.094Z,8.05
2022-11-19T01:48:13.210Z,8.05
2022-11-19T01:49:18.935Z,8.04
2022-11-19T01:50:21.463Z,8.01
2022-11-19T01:51:29.115Z,8.00
2022-11-19T01:52:30.793Z,7.99
2022-11-19T01:53:35.690Z,7.95
2022-11-19T01:54:44.535Z,7.92
2022-11-19T01:55:47.522Z,7.88
2022-11-19T01:56:50.064Z,7.86
2022-11-19T01:57:55.337Z,7.84
2022-11-19T01:59:01.172Z,7.85
2022-11-19T02:00:03.203Z,7.84
2022-11-19T02:01:10.589Z,7.83
2022-11-19T02:02:12.761Z,7.84
2022-11-19T02:03:16.457Z,7.83
2022-11-19T02:04:19.049Z,7.84
2022-11-19T02:05:21.931Z,7.84
2022-11-19T02:06:24.834Z,7.81
2022-11-19T02:07:29.340Z,7.83
2022-11-19T02:08:41.919Z,7.82
2022-11-19T02:09:45.259Z,7.80
2022-11-19T02:11:00.491Z,7.82
2022-11-19T02:12:14.868Z,7.81
2022-11-19T02:13:26.958Z,7.81
2022-11-19T02:14:50.512Z,7.83
2022-11-19T02:16:03.877Z,7.84
2022-11-19T02:17:16.306Z,7.84
2022-11-19T02:18:40.018Z,7.83
2022-11-19T02:20:20.604Z,7.83
2022-11-19T02:21:33.513Z,7.81
2022-11-19T02:22:56.441Z,7.80
2022-11-19T02:24:25.256Z,7.78
2022-11-19T02:25:44.648Z,7.79
2022-11-19T02:27:20.343Z,7.77
2022-11-19T02:28:31.994Z,7.75
2022-11-19T02:30:02.410Z,7.69
2022-11-19T02:31:12.563Z,7.65
2022-11-19T02:32:16.416Z,7.62
2022-11-19T02:33:26.552Z,7.59
2022-11-19T02:34:33.631Z,7.58
2022-11-19T02:35:50.572Z,7.60
2022-11-19T02:36:59.195Z,7.60
2022-11-19T02:38:05.915Z,7.60
2022-11-19T02:39:15.727Z,7.60
2022-11-19T02:40:24.260Z,7.59
2022-11-19T02:41:34.373Z,7.59
2022-11-19T02:42:45.221Z,7.63
2022-11-19T02:43:47.966Z,7.60
2022-11-19T02:44:59.678Z,7.58
2022-11-19T02:46:06.798Z,7.59
2022-11-19T02:47:13.587Z,7.55
2022-11-19T02:48:21.706Z,7.50
2022-11-19T02:49:29.624Z,7.47
2022-11-19T02:50:34.767Z,7.47
2022-11-19T02:51:37.340Z,7.44
2022-11-19T02:52:39.518Z,7.40
2022-11-19T02:53:42.269Z,7.37
2022-11-19T02:54:43.984Z,7.35
2022-11-19T02:56:08.548Z,7.32
2022-11-19T02:57:11.751Z,7.29
2022-11-19T02:58:32.708Z,7.26
2022-11-19T02:59:58.812Z,7.24
2022-11-19T03:01:21.335Z,7.19
2022-11-19T03:02:46.158Z,7.17
2022-11-19T03:04:07.542Z,7.14
2022-11-19T03:05:13.799Z,7.15
2022-11-19T03:06:18.847Z,7.16
2022-11-19T03:07:21.657Z,7.14
2022-11-19T03:08:24.682Z,7.18
2022-11-19T03:09:27.472Z,7.19
2022-11-19T03:10:43.226Z,7.19
2022-11-19T03:11:52.006Z,7.20
2022-11-19T03:12:59.632Z,7.19
2022-11-19T03:14:32.496Z,7.18
2022-11-19T03:16:12.276Z,7.17
2022-11-19T03:17:21.367Z,7.12
2022-11-19T03:18:32.012Z,7.13
2022-11-19T03:19:37.177Z,7.10
2022-11-19T03:20:42.518Z,7.09
2022-11-19T03:21:49.971Z,7.08
2022-11-19T03:22:55.734Z,7.05
2022-11-19T03:24:02.564Z,7.03
2022-11-19T03:25:10.701Z,6.99
2022-11-19T03:26:20.252Z,6.98
2022-11-19T03:27:26.847Z,6.99
2022-11-19T03:28:35.732Z,6.98
2022-11-19T03:29:42.484Z,6.98
2022-11-19T03:30:45.945Z,6.99
2022-11-19T03:31:52.495Z,6.98
2022-11-19T03:33:02.007Z,6.99
2022-11-19T03:34:10.514Z,6.98
2022-11-19T03:35:17.260Z,6.96
2022-11-19T03:36:24.217Z,6.96
2022-11-19T03:37:29.342Z,6.99
2022-11-19T03:38:35.822Z,7.00
2022-11-19T03:39:38.681Z,7.00
2022-11-19T03:40:43.118Z,6.99
2022-11-19T03:41:47.896Z,6.99
2022-11-19T03:42:53.963Z,6.99
2022-11-19T03:44:00.487Z,6.99
2022-11-19T03:45:08.280Z,6.99
2022-11-19T03:46:14.605Z,6.96
2022-11-19T03:47:20.958Z,6.97
2022-11-19T03:48:25.811Z,6.96
2022-11-19T03:49:32.880Z,6.94
2022-11-19T03:50:40.784Z,6.94
2022-11-19T03:51:49.325Z,6.92
2022-11-19T03:52:51.134Z,6.89
2022-11-19T03:53:54.268Z,6.88
2022-11-19T03:54:56.808Z,6.89
2022-11-19T03:56:02.011Z,6.91
2022-11-19T03:57:06.619Z,6.92
2022-11-19T03:58:10.631Z,6.94
2022-11-19T03:59:13.798Z,6.96
2022-11-19T04:00:16.564Z,6.97
2022-11-19T04:01:19.146Z,6.99
2022-11-19T04:02:21.180Z,6.99
2022-11-19T04:03:25.023Z,7.00
2022-11-19T04:04:36.817Z,7.01
2022-11-19T04:05:39.322Z,7.03
2022-11-19T04:06:40.847Z,7.02
2022-11-19T04:07:43.348Z,7.04
2022-11-19T04:08:44.819Z,7.04
2022-11-19T04:09:47.441Z,7.04
2022-11-19T04:10:49.018Z,7.03
2022-11-19T04:12:52.021Z,7.06
2022-11-19T04:13:54.522Z,7.07
2022-11-19T04:14:57.014Z,7.06
2022-11-19T04:15:58.525Z,7.05
2022-11-19T04:17:01.196Z,7.03
2022-11-19T04:18:02.701Z,7.01
2022-11-19T04:19:06.875Z,6.99
2022-11-19T04:20:10.432Z,6.95
2022-11-19T04:21:11.944Z,6.92
2022-11-19T04:22:14.560Z,6.90
2022-11-19T04:23:16.046Z,6.90
2022-11-19T04:24:18.818Z,6.91
2022-11-19T04:25:20.399Z,6.91
2022-11-19T04:26:22.960Z,6.93
2022-11-19T04:27:24.444Z,6.93
2022-11-19T04:28:26.892Z,6.92
2022-11-19T04:29:28.483Z,6.92
2022-11-19T04:30:30.982Z,6.90
2022-11-19T04:31:33.163Z,6.90
2022-11-19T04:32:35.641Z,6.89
2022-11-19T04:33:37.152Z,6.89
2022-11-19T04:34:40.944Z,6.86
2022-11-19T04:35:44.690Z,6.87
2022-11-19T04:36:47.611Z,6.85
2022-11-19T04:37:49.295Z,6.85
2022-11-19T04:38:53.970Z,6.86
2022-11-19T04:39:55.461Z,6.88
2022-11-19T04:40:58.185Z,6.86
2022-11-19T04:41:59.718Z,6.85
2022-11-19T04:43:02.247Z,6.84
2022-11-19T04:44:04.158Z,6.81
2022-11-19T04:45:07.691Z,6.81
2022-11-19T04:46:09.273Z,6.80
2022-11-19T04:47:11.827Z,6.81
2022-11-19T04:48:13.353Z,6.80
2022-11-19T04:49:15.967Z,6.80
2022-11-19T04:50:18.843Z,6.80
2022-11-19T04:51:21.355Z,6.81
2022-11-19T04:52:22.874Z,6.82
2022-11-19T04:53:25.370Z,6.82
2022-11-19T04:54:26.979Z,6.81
2022-11-19T04:55:29.425Z,6.82
2022-11-19T04:56:30.927Z,6.81
2022-11-19T04:57:33.417Z,6.79
2022-11-19T04:58:35.325Z,6.79
2022-11-19T04:59:37.804Z,6.78
2022-11-19T05:00:39.355Z,6.78
2022-11-19T05:01:42.839Z,6.77
2022-11-19T05:02:44.488Z,6.77
2022-11-19T05:03:47.240Z,6.77
2022-11-19T05:04:48.750Z,6.76
2022-11-19T05:05:52.680Z,6.76
2022-11-19T05:06:54.341Z,6.76
2022-11-19T05:07:56.910Z,6.76
2022-11-19T05:08:58.468Z,6.76
2022-11-19T05:10:00.961Z,6.75
2022-11-19T05:11:02.500Z,6.76
2022-11-19T05:12:05.666Z,6.74
2022-11-19T05:13:07.154Z,6.74
2022-11-19T05:14:09.839Z,6.73
2022-11-19T05:15:11.557Z,6.74
2022-11-19T05:16:14.140Z,6.74
2022-11-19T05:17:15.668Z,6.73
2022-11-19T05:18:18.131Z,6.71
2022-11-19T05:19:19.889Z,6.71
2022-11-19T05:20:22.655Z,6.72
2022-11-19T05:21:25.516Z,6.74
2022-11-19T05:22:28.014Z,6.73
2022-11-19T05:23:29.536Z,6.74
2022-11-19T05:24:32.091Z,6.76
2022-11-19T05:25:33.629Z,6.77
2022-11-19T05:26:36.243Z,6.78
2022-11-19T05:27:37.782Z,6.77
2022-11-19T05:28:40.378Z,6.75
2022-11-19T05:29:41.970Z,6.76
2022-11-19T05:30:44.555Z,6.76
2022-11-19T05:31:46.037Z,6.77
2022-11-19T05:32:48.871Z,6.78
2022-11-19T05:33:50.386Z,6.79
2022-11-19T05:34:52.870Z,6.81
2022-11-19T05:35:54.392Z,6.83
2022-11-19T05:36:58.419Z,6.84
2022-11-19T05:38:00.141Z,6.84
2022-11-19T05:39:02.661Z,6.82
2022-11-19T05:40:05.481Z,6.81
2022-11-19T05:41:08.000Z,6.81
2022-11-19T05:42:09.518Z,6.82
2022-11-19T05:43:12.011Z,6.82
2022-11-19T05:44:13.550Z,6.81
2022-11-19T05:45:16.175Z,6.83
2022-11-19T05:46:17.691Z,6.81
2022-11-19T05:47:20.205Z,6.79
2022-11-19T05:48:22.652Z,6.78
2022-11-19T05:49:24.181Z,6.76
2022-11-19T05:50:26.786Z,6.76
2022-11-19T05:51:28.424Z,6.76
2022-11-19T05:52:32.468Z,6.74
2022-11-19T05:53:34.052Z,6.74
2022-11-19T05:54:36.690Z,6.72
2022-11-19T05:55:38.211Z,6.72
2022-11-19T05:56:40.777Z,6.72
2022-11-19T05:57:42.653Z,6.71
2022-11-19T05:58:45.129Z,6.69
2022-11-19T05:59:46.643Z,6.66
2022-11-19T06:00:49.177Z,6.67
2022-11-19T06:01:50.746Z,6.67
2022-11-19T06:02:53.315Z,6.68
2022-11-19T06:03:55.302Z,6.70
2022-11-19T06:04:58.310Z,6.69
2022-11-19T06:06:00.258Z,6.68
2022-11-19T06:07:02.754Z,6.67
2022-11-19T06:08:05.908Z,6.65
2022-11-19T06:09:08.685Z,6.64
2022-11-19T06:10:10.840Z,6.65
2022-11-19T06:11:33.680Z,6.66
2022-11-19T06:12:35.309Z,6.64
2022-11-19T06:13:37.786Z,6.65
2022-11-19T06:14:39.333Z,6.65
2022-11-19T06:15:41.800Z,6.64
2022-11-19T06:16:43.551Z,6.65
2022-11-19T06:17:45.996Z,6.63
2022-11-19T06:18:47.487Z,6.62
2022-11-19T06:19:49.963Z,6.62
2022-11-19T06:20:51.562Z,6.63
2022-11-19T06:21:54.676Z,6.65
2022-11-19T06:22:56.455Z,6.67
2022-11-19T06:24:00.335Z,6.69
2022-11-19T06:25:01.923Z,6.67
2022-11-19T06:26:04.418Z,6.66
2022-11-19T06:27:05.946Z,6.68
2022-11-19T06:28:08.401Z,6.69
2022-11-19T06:29:11.329Z,6.69
2022-11-19T06:30:16.035Z,6.69
2022-11-19T06:31:17.894Z,6.68
2022-11-19T06:32:20.482Z,6.66
2022-11-19T06:33:22.011Z,6.65
2022-11-19T06:34:24.521Z,6.61
2022-11-19T06:35:26.005Z,6.59
2022-11-19T06:36:33.719Z,6.56
2022-11-19T06:37:39.912Z,6.55
2022-11-19T06:38:41.976Z,6.54
2022-11-19T06:39:45.784Z,6.55
2022-11-19T06:40:47.499Z,6.53
2022-11-19T06:41:49.974Z,6.53
2022-11-19T06:42:51.497Z,6.51
2022-11-19T06:43:53.965Z,6.52
2022-11-19T06:44:55.498Z,6.53
2022-11-19T06:45:58.038Z,6.52
2022-11-19T06:46:59.577Z,6.50
2022-11-19T06:48:02.125Z,6.49
2022-11-19T06:49:05.626Z,6.47
2022-11-19T06:50:10.012Z,6.46
2022-11-19T06:51:11.617Z,6.46
2022-11-19T06:52:14.099Z,6.46
2022-11-19T06:53:15.791Z,6.48
2022-11-19T06:54:18.279Z,6.48
2022-11-19T06:55:21.287Z,6.46
2022-11-19T06:56:23.791Z,6.46
2022-11-19T06:57:25.377Z,6.46
2022-11-19T06:58:28.506Z,6.45
2022-11-19T06:59:30.090Z,6.45
2022-11-19T07:00:32.919Z,6.44
2022-11-19T07:01:34.592Z,6.41
2022-11-19T07:02:37.686Z,6.38
2022-11-19T07:03:39.188Z,6.39
2022-11-19T07:04:41.725Z,6.38
2022-11-19T07:05:43.379Z,6.39
2022-11-19T07:06:46.090Z,6.40
2022-11-19T07:07:47.613Z,6.42
2022-11-19T07:08:50.140Z,6.43
2022-11-19T07:09:51.653Z,6.44
2022-11-19T07:10:56.439Z,6.43
2022-11-19T07:11:58.087Z,6.44
2022-11-19T07:13:00.710Z,6.44
2022-11-19T07:14:03.773Z,6.44
2022-11-19T07:15:06.893Z,6.44
2022-11-19T07:16:08.655Z,6.43
2022-11-19T07:17:11.144Z,6.42
2022-11-19T07:18:13.022Z,6.41
2022-11-19T07:19:15.550Z,6.43
2022-11-19T07:20:17.584Z,6.44
2022-11-19T07:21:20.141Z,6.45
2022-11-19T07:22:22.636Z,6.45
2022-11-19T07:23:24.164Z,6.48
2022-11-19T07:24:26.660Z,6.49
2022-11-19T07:25:29.212Z,6.51
2022-11-19T07:26:33.240Z,6.53
2022-11-19T07:27:35.789Z,6.52
2022-11-19T07:28:37.283Z,6.54
2022-11-19T07:29:39.819Z,6.56
2022-11-19T07:30:41.305Z,6.58
2022-11-19T07:31:45.727Z,6.58
2022-11-19T07:32:47.331Z,6.59
2022-11-19T07:33:49.903Z,6.61
2022-11-19T07:34:51.445Z,6.61
2022-11-19T07:35:53.907Z,6.60
2022-11-19T07:36:56.419Z,6.60
2022-11-19T07:37:57.935Z,6.60
2022-11-19T07:39:00.409Z,6.60
2022-11-19T07:40:02.197Z,6.61
2022-11-19T07:41:27.169Z,6.60
2022-11-19T07:42:48.590Z,6.59
2022-11-19T07:43:50.432Z,6.60
2022-11-19T07:44:54.953Z,6.62
2022-11-19T07:45:57.742Z,6.61
2022-11-19T07:47:00.412Z,6.59
2022-11-19T07:48:01.938Z,6.57
2022-11-19T07:49:04.643Z,6.55
2022-11-19T07:50:07.077Z,6.53
2022-11-19T07:51:09.615Z,6.53
2022-11-19T07:52:11.091Z,6.52
2022-11-19T07:53:13.532Z,6.53
2022-11-19T07:54:15.191Z,6.52
2022-11-19T07:55:17.905Z,6.53
2022-11-19T07:56:20.281Z,6.54
2022-11-19T07:57:29.665Z,6.57
2022-11-19T07:58:33.055Z,6.56
2022-11-19T07:59:35.588Z,6.56
2022-11-19T08:00:37.138Z,6.55
2022-11-19T08:01:39.826Z,6.55
2022-11-19T08:02:42.351Z,6.55
2022-11-19T08:03:46.097Z,6.57
2022-11-19T08:04:48.611Z,6.57
2022-11-19T08:05:50.176Z,6.56
2022-11-19T08:06:52.652Z,6.58
2022-11-19T08:07:54.178Z,6.62
2022-11-19T08:08:57.586Z,6.64
2022-11-19T08:09:59.091Z,6.64
2022-11-19T08:11:05.064Z,6.66
2022-11-19T08:12:06.976Z,6.65
2022-11-19T08:13:09.439Z,6.66
2022-11-19T08:14:13.193Z,6.67
2022-11-19T08:15:15.916Z,6.66
2022-11-19T08:16:39.090Z,6.66
2022-11-19T08:17:59.373Z,6.66
2022-11-19T08:19:02.352Z,6.66
2022-11-19T08:20:04.923Z,6.68
2022-11-19T08:21:09.403Z,6.70
2022-11-19T08:22:11.269Z,6.71
2022-11-19T08:23:13.746Z,6.69
2022-11-19T08:24:18.119Z,6.68
2022-11-19T08:25:20.934Z,6.66
2022-11-19T08:26:23.714Z,6.63
2022-11-19T08:27:26.346Z,6.60
2022-11-19T08:28:27.994Z,6.58
2022-11-19T08:29:31.889Z,6.56
2022-11-19T08:30:34.541Z,6.54
2022-11-19T08:31:37.169Z,6.54
2022-11-19T08:32:39.647Z,6.53
2022-11-19T08:33:42.201Z,6.51
2022-11-19T08:34:44.726Z,6.49
2022-11-19T08:35:46.419Z,6.48
2022-11-19T08:36:48.967Z,6.49
2022-11-19T08:37:51.300Z,6.50
2022-11-19T08:38:53.789Z,6.49
2022-11-19T08:39:56.269Z,6.48
2022-11-19T08:41:12.831Z,6.50
2022-11-19T08:42:32.749Z,6.51
2022-11-19T08:43:35.266Z,6.52
2022-11-19T08:44:38.349Z,6.53
2022-11-19T08:45:40.886Z,6.56
2022-11-19T08:46:42.467Z,6.59
2022-11-19T08:47:44.974Z,6.62
2022-11-19T08:48:46.631Z,6.62
2022-11-19T08:49:49.143Z,6.62
2022-11-19T08:50:50.657Z,6.65
2022-11-19T08:51:53.559Z,6.67
2022-11-19T08:52:57.019Z,6.70
2022-11-19T08:53:59.512Z,6.69
2022-11-19T08:55:02.063Z,6.70
2022-11-19T08:56:03.770Z,6.69
2022-11-19T08:57:06.528Z,6.71
2022-11-19T08:58:08.230Z,6.72
2022-11-19T08:59:10.744Z,6.73
2022-11-19T09:00:15.257Z,6.73
2022-11-19T09:01:18.597Z,6.72
2022-11-19T09:02:21.123Z,6.73
2022-11-19T09:03:22.760Z,6.73
2022-11-19T09:04:25.313Z,6.73
2022-11-19T09:05:27.328Z,6.72
2022-11-19T09:06:29.881Z,6.71
2022-11-19T09:07:31.460Z,6.69
2022-11-19T09:08:34.550Z,6.68
2022-11-19T09:09:37.018Z,6.67
2022-11-19T09:10:39.104Z,6.70
2022-11-19T09:11:43.072Z,6.71
2022-11-19T09:12:45.750Z,6.71
2022-11-19T09:13:47.321Z,6.73
2022-11-19T09:14:50.396Z,6.75
2022-11-19T09:15:54.255Z,6.77
2022-11-19T09:16:55.788Z,6.78
2022-11-19T09:17:58.331Z,6.77
2022-11-19T09:19:02.072Z,6.75
2022-11-19T09:20:04.753Z,6.73
2022-11-19T09:21:08.401Z,6.71
2022-11-19T09:22:10.911Z,6.72
2022-11-19T09:23:13.979Z,6.76
2022-11-19T09:24:16.562Z,6.78
2022-11-19T09:25:18.071Z,6.83
2022-11-19T09:26:20.906Z,6.86
2022-11-19T09:27:22.466Z,6.89
2022-11-19T09:28:25.013Z,6.92
2022-11-19T09:29:27.560Z,6.93
2022-11-19T09:30:29.376Z,6.95
2022-11-19T09:31:33.432Z,6.97
2022-11-19T09:32:36.007Z,6.98
2022-11-19T09:33:42.003Z,6.96
2022-11-19T09:34:44.649Z,6.95
2022-11-19T09:35:46.258Z,6.94
2022-11-19T09:36:48.748Z,6.92
2022-11-19T09:37:50.283Z,6.91
2022-11-19T09:38:57.915Z,6.89
2022-11-19T09:39:59.583Z,6.87
2022-11-19T09:41:19.866Z,6.84
2022-11-19T09:42:28.871Z,6.82
2022-11-19T09:43:40.205Z,6.81
2022-11-19T09:45:04.560Z,6.80
2022-11-19T09:46:15.173Z,6.82
2022-11-19T09:47:27.103Z,6.84
2022-11-19T09:48:34.902Z,6.84
2022-11-19T09:49:42.333Z,6.84
2022-11-19T09:50:53.529Z,6.82
2022-11-19T09:52:00.350Z,6.84
2022-11-19T09:53:07.121Z,6.86
2022-11-19T09:54:15.347Z,6.86
2022-11-19T09:55:22.017Z,6.87
2022-11-19T09:56:28.618Z,6.88
2022-11-19T09:57:37.643Z,6.90
2022-11-19T09:58:42.146Z,6.91
2022-11-19T09:59:44.779Z,6.93
2022-11-19T10:00:46.469Z,6.95
2022-11-19T10:01:48.987Z,6.93
2022-11-19T10:02:53.356Z,6.93
2022-11-19T10:03:56.120Z,6.93
2022-11-19T10:04:58.550Z,6.92
2022-11-19T10:06:19.566Z,6.89
2022-11-19T10:07:31.828Z,6.87
2022-11-19T10:08:55.961Z,6.84
2022-11-19T10:10:13.004Z,6.85
2022-11-19T10:11:32.626Z,6.81
2022-11-19T10:13:11.510Z,6.81
2022-11-19T10:14:34.797Z,6.83
2022-11-19T10:15:42.581Z,6.84
2022-11-19T10:16:58.018Z,6.80
2022-11-19T10:18:11.323Z,6.78
2022-11-19T10:19:26.109Z,6.76
2022-11-19T10:21:00.444Z,6.70
2022-11-19T10:22:10.316Z,6.65
2022-11-19T10:23:17.415Z,6.64
2022-11-19T10:24:28.892Z,6.63
2022-11-19T10:25:36.793Z,6.66
2022-11-19T10:26:40.815Z,6.66
2022-11-19T10:27:48.938Z,6.67
2022-11-19T10:28:57.011Z,6.64
2022-11-19T10:30:02.737Z,6.65
2022-11-19T10:31:08.549Z,6.64
2022-11-19T10:32:21.860Z,6.67
2022-11-19T10:33:30.640Z,6.67
2022-11-19T10:34:36.995Z,6.66
2022-11-19T10:35:43.627Z,6.66
2022-11-19T10:36:47.950Z,6.68
2022-11-19T10:37:56.902Z,6.72
2022-11-19T10:39:04.547Z,6.78
2022-11-19T10:40:13.252Z,6.82
2022-11-19T10:41:20.323Z,6.85
2022-11-19T10:42:28.545Z,6.89
2022-11-19T10:43:35.649Z,6.92
2022-11-19T10:44:43.537Z,6.95
2022-11-19T10:45:45.054Z,6.99
2022-11-19T10:46:50.024Z,7.02
2022-11-19T10:47:57.961Z,7.05
2022-11-19T10:49:02.466Z,7.11
2022-11-19T10:50:09.873Z,7.15
2022-11-19T10:51:17.659Z,7.21
2022-11-19T10:52:26.034Z,7.25
2022-11-19T10:53:33.272Z,7.30
2022-11-19T10:54:36.843Z,7.33
2022-11-19T10:55:42.678Z,7.37
2022-11-19T10:56:44.461Z,7.40
2022-11-19T10:57:49.604Z,7.40
2022-11-19T10:58:55.998Z,7.38
2022-11-19T10:59:58.991Z,7.39
2022-11-19T11:01:03.559Z,7.42
2022-11-19T11:02:26.481Z,7.43
2022-11-19T11:03:35.537Z,7.44
2022-11-19T11:05:02.883Z,7.45
2022-11-19T11:06:09.772Z,7.45
2022-11-19T11:07:12.469Z,7.48
2022-11-19T11:08:15.290Z,7.48
2022-11-19T11:09:29.989Z,7.48
2022-11-19T11:10:35.930Z,7.48
2022-11-19T11:11:57.217Z,7.46
2022-11-19T11:13:24.679Z,7.45
2022-11-19T11:14:50.295Z,7.46
2022-11-19T11:15:53.331Z,7.48
2022-11-19T11:16:54.988Z,7.53
2022-11-19T11:18:03.031Z,7.56
2022-11-19T11:19:13.527Z,7.62
2022-11-19T11:20:28.257Z,7.65
2022-11-19T11:21:35.589Z,7.69
2022-11-19T11:22:37.632Z,7.71
2022-11-19T11:23:50.717Z,7.75
2022-11-19T11:24:53.372Z,7.81
2022-11-19T11:26:02.822Z,7.83
2022-11-19T11:27:21.693Z,7.82
2022-11-19T11:28:23.951Z,7.82
2022-11-19T11:29:27.710Z,7.81
2022-11-19T11:30:29.500Z,7.78
2022-11-19T11:31:50.048Z,7.72
2022-11-19T11:32:51.692Z,7.68
2022-11-19T11:33:56.697Z,7.65
2022-11-19T11:35:05.099Z,7.62
2022-11-19T11:36:13.503Z,7.60
2022-11-19T11:37:16.212Z,7.60
2022-11-19T11:38:22.118Z,7.60
2022-11-19T11:39:27.882Z,7.64
2022-11-19T11:40:30.423Z,7.65
2022-11-19T11:42:04.916Z,7.63
2022-11-19T11:43:03.734Z,7.59
2022-11-19T11:44:08.508Z,7.57
2022-11-19T11:45:23.492Z,7.54
2022-11-19T11:46:25.046Z,7.55
2022-11-19T11:47:30.279Z,7.54
2022-11-19T11:48:36.959Z,7.56
2022-11-19T11:49:42.340Z,7.56
2022-11-19T11:50:45.746Z,7.54
2022-11-19T11:52:07.213Z,7.51
2022-11-19T11:53:10.593Z,7.49
2022-11-19T11:54:18.742Z,7.46
2022-11-19T11:55:32.443Z,7.45
2022-11-19T11:56:34.016Z,7.43
2022-11-19T11:57:38.124Z,7.40
2022-11-19T11:58:39.638Z,7.36
2022-11-19T11:59:42.403Z,7.36
2022-11-19T12:00:45.643Z,7.39
2022-11-19T12:01:54.598Z,7.40
2022-11-19T12:03:00.507Z,7.39
2022-11-19T12:04:03.825Z,7.39
2022-11-19T12:05:10.785Z,7.41
2022-11-19T12:06:17.554Z,7.39
2022-11-19T12:07:44.837Z,7.36
2022-11-19T12:08:54.144Z,7.36
2022-11-19T12:10:04.163Z,7.34
2022-11-19T12:11:13.871Z,7.32
2022-11-19T12:12:28.330Z,7.29
2022-11-19T12:13:50.115Z,7.25
2022-11-19T12:14:59.641Z,7.23
2022-11-19T12:16:09.731Z,7.22
2022-11-19T12:17:24.658Z,7.22
2022-11-19T12:18:37.371Z,7.21
2022-11-19T12:19:55.495Z,7.18
2022-11-19T12:21:10.238Z,7.14
2022-11-19T12:22:25.396Z,7.10
2022-11-19T12:23:46.306Z,7.05
2022-11-19T12:25:00.273Z,7.01
2022-11-19T12:26:14.912Z,7.02
2022-11-19T12:27:26.098Z,7.03
2022-11-19T12:28:47.168Z,7.04
2022-11-19T12:29:57.976Z,7.07
2022-11-19T12:31:15.288Z,7.09
2022-11-19T12:32:32.449Z,7.12
2022-11-19T12:34:02.014Z,7.16
2022-11-19T12:35:17.677Z,7.15
2022-11-19T12:36:25.300Z,7.13
2022-11-19T12:37:43.300Z,7.14
2022-11-19T12:38:56.976Z,7.16
2022-11-19T12:40:04.544Z,7.17
2022-11-19T12:41:40.877Z,7.22
2022-11-19T12:42:52.311Z,7.21
2022-11-19T12:43:57.767Z,7.22
2022-11-19T12:45:07.252Z,7.23
2022-11-19T12:46:19.615Z,7.24
2022-11-19T12:47:34.402Z,7.26
2022-11-19T12:48:53.202Z,7.28
2022-11-19T12:50:18.604Z,7.29
2022-11-19T12:51:32.552Z,7.28
2022-11-19T12:53:07.392Z,7.30
2022-11-19T12:54:41.458Z,7.31
2022-11-19T12:55:55.141Z,7.31
2022-11-19T12:57:09.910Z,7.32
2022-11-19T12:58:23.048Z,7.30
2022-11-19T12:59:43.776Z,7.28
2022-11-19T13:00:52.391Z,7.26
2022-11-19T13:01:56.289Z,7.25
2022-11-19T13:03:12.166Z,7.23
2022-11-19T13:04:21.232Z,7.23
2022-11-19T13:05:34.232Z,7.24
2022-11-19T13:06:42.504Z,7.24
2022-11-19T13:07:49.316Z,7.27
2022-11-19T13:08:56.063Z,7.28
2022-11-19T13:10:03.467Z,7.29
2022-11-19T13:11:12.446Z,7.26
2022-11-19T13:12:19.228Z,7.27
2022-11-19T13:13:27.275Z,7.25
2022-11-19T13:14:35.688Z,7.25
2022-11-19T13:15:40.934Z,7.23
2022-11-19T13:16:44.029Z,7.20
2022-11-19T13:17:50.966Z,7.18
2022-11-19T13:19:05.999Z,7.19
2022-11-19T13:20:15.111Z,7.21
2022-11-19T13:21:27.520Z,7.20
2022-11-19T13:22:33.011Z,7.21
2022-11-19T13:23:41.078Z,7.22
2022-11-19T13:24:46.701Z,7.24
2022-11-19T13:25:57.361Z,7.25
2022-11-19T13:27:03.419Z,7.28
2022-11-19T13:28:17.764Z,7.30
2022-11-19T13:29:33.529Z,7.31
2022-11-19T13:30:35.824Z,7.31
2022-11-19T13:31:44.583Z,7.34
2022-11-19T13:32:53.419Z,7.35
2022-11-19T13:34:00.053Z,7.34
2022-11-19T13:35:12.579Z,7.35
2022-11-19T13:36:20.652Z,7.34
2022-11-19T13:37:35.341Z,7.33
2022-11-19T13:38:44.801Z,7.32
2022-11-19T13:39:50.847Z,7.31
2022-11-19T13:41:02.672Z,7.30
2022-11-19T13:42:37.416Z,7.28
2022-11-19T13:43:58.358Z,7.27
2022-11-19T13:45:00.199Z,7.26
2022-11-19T13:46:12.183Z,7.23
2022-11-19T13:47:20.077Z,7.22
2022-11-19T13:48:26.672Z,7.21
2022-11-19T13:49:34.284Z,7.21
2022-11-19T13:50:41.618Z,7.21
2022-11-19T13:51:46.577Z,7.22
2022-11-19T13:52:54.999Z,7.21
2022-11-19T13:54:03.027Z,7.20
2022-11-19T13:55:27.467Z,7.20
2022-11-19T13:56:42.494Z,7.23
2022-11-19T13:57:45.301Z,7.24
2022-11-19T13:58:50.171Z,7.23
2022-11-19T13:59:58.366Z,7.23
2022-11-19T14:01:17.333Z,7.21
2022-11-19T14:02:41.858Z,7.21
2022-11-19T14:04:00.149Z,7.20
2022-11-19T14:05:50.372Z,7.19
2022-11-19T14:07:13.426Z,7.20
2022-11-19T14:08:26.568Z,7.19
2022-11-19T14:09:37.664Z,7.20
2022-11-19T14:10:46.878Z,7.22
2022-11-19T14:12:08.028Z,7.20
2022-11-19T14:13:42.959Z,7.17
2022-11-19T14:15:17.422Z,7.13
2022-11-19T14:16:46.270Z,7.11
2022-11-19T14:18:29.646Z,7.09
2022-11-19T14:20:07.324Z,7.06
2022-11-19T14:22:07.995Z,7.04
2022-11-19T14:24:03.219Z,7.02
2022-11-19T14:25:26.742Z,7.01
2022-11-19T14:27:15.523Z,6.98
2022-11-19T14:28:44.462Z,6.93
2022-11-19T14:30:09.484Z,6.92
2022-11-19T14:31:11.526Z,6.90
2022-11-19T14:32:28.929Z,6.89
2022-11-19T14:34:01.315Z,6.90
2022-11-19T14:35:20.496Z,6.87
2022-11-19T14:36:27.711Z,6.86
2022-11-19T14:37:34.566Z,6.85
2022-11-19T14:38:42.810Z,6.82
2022-11-19T14:39:47.445Z,6.82
2022-11-19T14:41:02.803Z,6.83
2022-11-19T14:42:16.332Z,6.84
2022-11-19T14:43:43.253Z,6.85
2022-11-19T14:44:46.742Z,6.86
2022-11-19T14:46:17.800Z,6.89
2022-11-19T14:47:38.722Z,6.93
2022-11-19T14:48:50.467Z,6.94
2022-11-19T14:49:54.071Z,6.93
2022-11-19T14:51:01.459Z,6.93
2022-11-19T14:52:04.651Z,6.91
2022-11-19T14:53:18.546Z,6.91